Flight Track Log - Related Links

Times and Time Zones

All times are in EDT time to prevent confusion due to time zone crossing. See the JZA8745 flight status page for this flight to view local times or setup timezone preferences in your user account.


Time Position Orientation Groundspeed Altitude Reporting Facility
EDT Latitude Longitude Course Direction KTS MPH feet Rate Location/Type
Wed 02:59:31 PM 47.5667 -65.8667 244° Southwest 170 196 4,900  Level Moncton Center
Wed 03:00:31 PM 47.5500 -65.9333 250° West 150 173 6,100 1,100 Climbing Moncton Center
Wed 03:01:31 PM 47.5333 -65.9833 244° Southwest 160 184 7,100 1,150 Climbing Moncton Center
Wed 03:02:31 PM 47.5000 -66.0333 225° Southwest 150 173 8,400 1,150 Climbing Moncton Center
Wed 03:03:31 PM 47.4833 -66.1000 250° West 150 173 9,400 1,050 Climbing Moncton Center
Wed 03:04:31 PM 47.4667 -66.1500 244° Southwest 170 196 10,500 1,200 Climbing Moncton Center
Wed 03:05:00 PM 47.3170 -66.5828 244° Southwest  Level FlightAware Approximate
Wed 03:05:31 PM 47.4500 -66.2333 254° West 160 184 11,800  Level Moncton Center
Wed 03:06:31 PM 47.4333 -66.2833 244° Southwest 170 196 12,800 1,050 Climbing Moncton Center
Wed 03:07:31 PM 47.4000 -66.3500 234° Southwest 170 196 13,900 1,100 Climbing Moncton Center
Wed 03:08:31 PM 47.3833 -66.4000 244° Southwest 170 196 15,000 1,100 Climbing Moncton Center
Wed 03:09:31 PM 47.3667 -66.4667 250° West 170 196 16,100 1,000 Climbing Moncton Center
Wed 03:10:31 PM 47.3500 -66.5167 244° Southwest 160 184 17,000 900 Climbing Moncton Center
Wed 03:11:31 PM 47.3167 -66.6000 239° Southwest 170 196 17,900 750 Climbing Moncton Center
Wed 03:12:31 PM 47.3000 -66.6500 244° Southwest 170 196 18,500 800 Climbing Moncton Center
Wed 03:13:31 PM 47.2667 -66.7167 234° Southwest 180 207 19,500 900 Climbing Moncton Center
Wed 03:14:31 PM 47.2500 -66.7667 244° Southwest 170 196 20,300 750 Climbing Moncton Center
Wed 03:15:31 PM 47.2167 -66.8333 234° Southwest 170 196 21,000 700 Climbing Moncton Center
Wed 03:16:31 PM 47.2000 -66.9167 254° West 170 196 21,700 500 Climbing Moncton Center
Wed 03:17:31 PM 47.1833 -66.9667 244° Southwest 180 207 22,000 150 Climbing Moncton Center
Wed 03:18:31 PM 47.1500 -67.0333 234° Southwest 200 230 22,000  Level Moncton Center
Wed 03:19:31 PM 47.1333 -67.1333 256° West 220 253 22,000  Level Moncton Center
Wed 03:20:27 PM 47.1114 -67.1886 240° Southwest 227 261 22,000  Level Boston Center
Wed 03:21:27 PM 47.0797 -67.2708 241° Southwest 237 273 22,000  Level Boston Center
Wed 03:22:27 PM 47.0558 -67.3433 244° Southwest 243 280 22,000  Level Boston Center
Wed 03:23:27 PM 47.0164 -67.4442 240° Southwest 243 280 22,000  Level Boston Center
Wed 03:24:27 PM 46.9867 -67.5292 243° Southwest 243 280 22,000  Level Boston Center
Wed 03:25:27 PM 46.9528 -67.6142 240° Southwest 243 280 22,000  Level Boston Center
Wed 03:26:27 PM 46.9208 -67.6992 241° Southwest 243 280 22,000  Level Boston Center
Wed 03:27:27 PM 46.8889 -67.7869 242° Southwest 248 285 22,000  Level Boston Center
Wed 03:28:27 PM 46.8569 -67.8744 242° Southwest 248 285 22,000  Level Boston Center
Wed 03:29:39 PM 46.8158 -67.9961 244° Southwest 258 297 22,000  Level Boston Center
Wed 03:30:39 PM 46.7792 -68.0781 237° Southwest 263 303 22,000  Level Boston Center
Wed 03:31:39 PM 46.7536 -68.1708 248° West 250 288 22,000  Level Boston Center
Wed 03:32:39 PM 46.7256 -68.2639 246° West 250 288 22,000  Level Boston Center
Wed 03:33:39 PM 46.6997 -68.3567 248° West 245 282 22,000  Level Boston Center
Wed 03:34:39 PM 46.6736 -68.4461 247° West 245 282 22,000  Level Boston Center
Wed 03:35:39 PM 46.6453 -68.5358 245° Southwest 245 282 22,000  Level Boston Center
Wed 03:36:39 PM 46.6194 -68.6314 249° West 245 282 22,000  Level Boston Center
Wed 03:37:39 PM 46.5908 -68.7178 244° Southwest 245 282 22,000  Level Boston Center
Wed 03:38:39 PM 46.5644 -68.8072 247° West 245 282 22,000  Level Boston Center
Wed 03:39:39 PM 46.5383 -68.8994 248° West 245 282 22,000  Level Boston Center
Wed 03:40:39 PM 46.5097 -68.9917 246° West 240 276 22,000  Level Boston Center
Wed 03:41:39 PM 46.4831 -69.0778 246° West 240 276 22,000  Level Boston Center
Wed 03:42:39 PM 46.4544 -69.1697 246° West 246 283 22,000  Level Boston Center
Wed 03:43:39 PM 46.4256 -69.2558 244° Southwest 246 283 22,000  Level Boston Center
Wed 03:44:39 PM 46.3989 -69.3475 247° West 241 277 22,000  Level Boston Center
Wed 03:45:39 PM 46.3700 -69.4333 244° Southwest 241 277 22,000  Level Boston Center
Wed 03:46:39 PM 46.3450 -69.5219 248° West 241 277 22,000  Level Boston Center
Wed 03:47:39 PM 46.3142 -69.6136 244° Southwest 241 277 22,000  Level Boston Center
Wed 03:48:51 PM 46.2892 -69.7019 248° West 241 277 22,000  Level Boston Center
Wed 03:49:51 PM 46.2542 -69.8117 245° Southwest 241 277 22,000  Level Boston Center
Wed 03:50:51 PM 46.2269 -69.9000 246° West 241 277 22,000  Level Boston Center
Wed 03:51:51 PM 46.2056 -69.9728 247° West 241 277 22,000  Level Boston Center
Wed 03:52:51 PM 46.1703 -70.0792 244° Southwest 241 277 22,000  Level Boston Center
Wed 03:53:51 PM 46.1386 -70.1675 243° Southwest 241 277 22,000  Level Boston Center
Wed 03:54:15 PM 46.1167 -70.1833 207° Southwest 250 288 22,000  Level Montreal Center
Wed 03:55:15 PM 46.1000 -70.2667 254° West 250 288 22,000  Level Montreal Center
Wed 03:56:15 PM 46.0667 -70.3667 244° Southwest 250 288 22,000  Level Montreal Center
Wed 03:56:31 PM 46.0500 -70.4333 250° West 250 288 22,000  Level Moncton Center
Wed 03:57:15 PM 46.0333 -70.4667 234° Southwest 250 288 22,000  Level Montreal Center
Wed 03:58:15 PM 46.0167 -70.5500 254° West 250 288 22,000  Level Montreal Center
Wed 03:59:15 PM 45.9833 -70.6333 240° Southwest 250 288 22,000  Level Montreal Center
Wed 04:00:15 PM 45.9500 -70.7333 244° Southwest 250 288 22,000  Level Montreal Center
Wed 04:01:15 PM 45.9167 -70.8333 244° Southwest 250 288 22,000  Level Montreal Center
Wed 04:02:15 PM 45.9167 -70.9333 270° West 260 299 22,000  Level Montreal Center
Wed 04:03:15 PM 45.9000 -71.0333 257° West 260 299 22,000  Level Montreal Center
Wed 04:04:15 PM 45.8833 -71.1333 257° West 260 299 22,000  Level Montreal Center
Wed 04:05:15 PM 45.8667 -71.2167 254° West 260 299 22,000  Level Montreal Center
Wed 04:06:15 PM 45.8833 -71.3167 283° West 260 299 22,000  Level Montreal Center
Wed 04:07:15 PM 45.8667 -71.4333 258° West 260 299 22,000  Level Montreal Center
Wed 04:08:15 PM 45.8500 -71.5333 257° West 260 299 22,000  Level Montreal Center
Wed 04:09:15 PM 45.8333 -71.6333 257° West 260 299 22,000  Level Montreal Center
Wed 04:10:15 PM 45.8333 -71.7333 270° West 260 299 22,000  Level Montreal Center
Wed 04:11:15 PM 45.8333 -71.8500 270° West 260 299 22,000  Level Montreal Center
Wed 04:12:15 PM 45.8167 -71.9500 257° West 260 299 22,000 -300 Level Montreal Center
Wed 04:13:15 PM 45.8000 -72.0500 257° West 260 299 21,400 -1,100 Descending Montreal Center
Wed 04:14:15 PM 45.8000 -72.1667 270° West 280 322 19,800 -1,500 Descending Montreal Center
Wed 04:15:15 PM 45.7833 -72.2833 258° West 290 334 18,400 -1,400 Descending Montreal Center
Wed 04:16:15 PM 45.7667 -72.3833 257° West 290 334 17,000 -1,467 Descending Montreal Center
Wed 04:18:15 PM 45.7333 -72.6333 259° West 280 322 14,000 -1,600 Descending Montreal Center
Wed 04:19:15 PM 45.7500 -72.7333 283° West 280 322 12,200 -2,000 Descending Montreal Center
Wed 04:20:15 PM 45.7333 -72.8167 254° West 270 311 10,000 -2,050 Descending Montreal Center
Wed 04:21:15 PM 45.7167 -72.9500 260° West 270 311 8,100 -1,000 Descending Montreal Center
Wed 04:22:15 PM 45.7000 -73.0333 254° West 240 276 8,000 -350 Descending Montreal Center
Wed 04:23:15 PM 45.6833 -73.1333 257° West 240 276 7,400 -900 Descending Montreal Center
Wed 04:24:15 PM 45.6667 -73.2333 257° West 260 299 6,200 -800 Descending Montreal Center
Wed 04:25:15 PM 45.6667 -73.3333 270° West 240 276 5,800 -600 Descending Montreal Center
Wed 04:26:15 PM 45.6500 -73.4333 257° West 250 288 5,000 -400 Descending Montreal Center
Wed 04:27:15 PM 45.6333 -73.5000 250° West 220 253 5,000 -500 Level Montreal Center
Wed 04:28:15 PM 45.6000 -73.5667 234° Southwest 190 219 4,000 -1,250 Descending Montreal Center
Wed 04:29:15 PM 45.5667 -73.6167 226° Southwest 170 196 2,500 -1,200 Descending Montreal Center
Wed 04:30:15 PM 45.5333 -73.6500 215° Southwest 170 196 1,600 -850 Descending Montreal Center
Wed 04:31:15 PM 45.5000 -73.7000 226° Southwest 150 173 800 -800 Descending Montreal Center

Login

Don't have an account? Register now (free) for customized features, flight alerts, and more!